sensor_id;sensor_type;location;lat;lon;timestamp;P1;durP1;ratioP1;P2;durP2;ratioP2
38089;SDS011;23904;52.322;10.232;2022-11-04T00:01:57;16.23;;;5.78;;
38089;SDS011;23904;52.322;10.232;2022-11-04T00:04:24;14.23;;;6.18;;
38089;SDS011;23904;52.322;10.232;2022-11-04T00:06:51;18.35;;;6.88;;
38089;SDS011;23904;52.322;10.232;2022-11-04T00:09:18;17.65;;;6.60;;
38089;SDS011;23904;52.322;10.232;2022-11-04T00:11:47;14.52;;;4.57;;
38089;SDS011;23904;52.322;10.232;2022-11-04T00:14:32;8.40;;;4.72;;
38089;SDS011;23904;52.322;10.232;2022-11-04T00:16:59;9.40;;;4.50;;
38089;SDS011;23904;52.322;10.232;2022-11-04T00:19:43;12.43;;;4.60;;
38089;SDS011;23904;52.322;10.232;2022-11-04T00:22:38;13.48;;;6.03;;
38089;SDS011;23904;52.322;10.232;2022-11-04T00:25:24;14.43;;;5.57;;
38089;SDS011;23904;52.322;10.232;2022-11-04T00:28:13;12.60;;;5.00;;
38089;SDS011;23904;52.322;10.232;2022-11-04T00:31:01;11.73;;;4.55;;
38089;SDS011;23904;52.322;10.232;2022-11-04T00:33:47;10.88;;;4.22;;
38089;SDS011;23904;52.322;10.232;2022-11-04T00:36:14;11.13;;;4.78;;
38089;SDS011;23904;52.322;10.232;2022-11-04T00:38:40;12.02;;;4.18;;
38089;SDS011;23904;52.322;10.232;2022-11-04T00:41:07;13.15;;;4.53;;
38089;SDS011;23904;52.322;10.232;2022-11-04T00:43:50;9.53;;;4.70;;
38089;SDS011;23904;52.322;10.232;2022-11-04T00:46:16;11.13;;;5.03;;
38089;SDS011;23904;52.322;10.232;2022-11-04T00:48:42;11.43;;;4.57;;
38089;SDS011;23904;52.322;10.232;2022-11-04T00:51:09;10.00;;;4.60;;
38089;SDS011;23904;52.322;10.232;2022-11-04T00:53:34;12.27;;;4.07;;
38089;SDS011;23904;52.322;10.232;2022-11-04T00:56:00;8.52;;;4.25;;
38089;SDS011;23904;52.322;10.232;2022-11-04T00:58:27;11.70;;;5.13;;
38089;SDS011;23904;52.322;10.232;2022-11-04T01:00:53;11.55;;;4.38;;
38089;SDS011;23904;52.322;10.232;2022-11-04T01:03:18;10.85;;;4.53;;
38089;SDS011;23904;52.322;10.232;2022-11-04T01:05:44;7.13;;;4.88;;
38089;SDS011;23904;52.322;10.232;2022-11-04T01:08:10;10.98;;;4.95;;
38089;SDS011;23904;52.322;10.232;2022-11-04T01:10:35;10.75;;;4.40;;
38089;SDS011;23904;52.322;10.232;2022-11-04T01:13:08;9.13;;;3.80;;
38089;SDS011;23904;52.322;10.232;2022-11-04T01:15:35;8.60;;;4.65;;
38089;SDS011;23904;52.322;10.232;2022-11-04T01:18:02;10.07;;;4.28;;
38089;SDS011;23904;52.322;10.232;2022-11-04T01:20:28;11.23;;;4.35;;
38089;SDS011;23904;52.322;10.232;2022-11-04T01:22:54;8.90;;;3.65;;
38089;SDS011;23904;52.322;10.232;2022-11-04T01:25:19;6.78;;;3.58;;
38089;SDS011;23904;52.322;10.232;2022-11-04T01:27:45;6.90;;;2.95;;
38089;SDS011;23904;52.322;10.232;2022-11-04T01:30:11;7.70;;;3.78;;
38089;SDS011;23904;52.322;10.232;2022-11-04T01:32:37;5.75;;;3.42;;
38089;SDS011;23904;52.322;10.232;2022-11-04T01:35:02;6.88;;;2.85;;
38089;SDS011;23904;52.322;10.232;2022-11-04T01:37:28;4.60;;;2.70;;
38089;SDS011;23904;52.322;10.232;2022-11-04T01:39:54;5.93;;;2.90;;
38089;SDS011;23904;52.322;10.232;2022-11-04T01:42:20;6.53;;;3.55;;
38089;SDS011;23904;52.322;10.232;2022-11-04T01:44:54;8.68;;;3.35;;
38089;SDS011;23904;52.322;10.232;2022-11-04T01:47:42;5.07;;;3.38;;
38089;SDS011;23904;52.322;10.232;2022-11-04T01:50:16;6.80;;;3.47;;
38089;SDS011;23904;52.322;10.232;2022-11-04T01:52:53;8.23;;;3.25;;
38089;SDS011;23904;52.322;10.232;2022-11-04T01:55:32;7.30;;;3.45;;
38089;SDS011;23904;52.322;10.232;2022-11-04T01:58:05;7.28;;;3.70;;
38089;SDS011;23904;52.322;10.232;2022-11-04T02:00:37;6.65;;;3.28;;
38089;SDS011;23904;52.322;10.232;2022-11-04T02:03:07;8.77;;;4.35;;
38089;SDS011;23904;52.322;10.232;2022-11-04T02:05:41;7.00;;;3.45;;
38089;SDS011;23904;52.322;10.232;2022-11-04T02:08:08;7.05;;;4.03;;
38089;SDS011;23904;52.322;10.232;2022-11-04T02:10:35;8.80;;;4.22;;
38089;SDS011;23904;52.322;10.232;2022-11-04T02:13:04;8.15;;;4.45;;
38089;SDS011;23904;52.322;10.232;2022-11-04T02:18:25;7.00;;;3.50;;
38089;SDS011;23904;52.322;10.232;2022-11-04T02:24:21;6.95;;;4.00;;
38089;SDS011;23904;52.322;10.232;2022-11-04T02:27:15;10.23;;;4.18;;
38089;SDS011;23904;52.322;10.232;2022-11-04T02:30:06;8.15;;;4.30;;
38089;SDS011;23904;52.322;10.232;2022-11-04T02:32:40;10.43;;;4.28;;
38089;SDS011;23904;52.322;10.232;2022-11-04T02:43:34;10.38;;;4.53;;
38089;SDS011;23904;52.322;10.232;2022-11-04T02:46:39;9.15;;;4.63;;
38089;SDS011;23904;52.322;10.232;2022-11-04T02:49:19;7.40;;;4.72;;
38089;SDS011;23904;52.322;10.232;2022-11-04T02:52:01;6.22;;;4.15;;
38089;SDS011;23904;52.322;10.232;2022-11-04T02:54:43;8.30;;;4.07;;
38089;SDS011;23904;52.322;10.232;2022-11-04T02:57:18;8.93;;;4.90;;
38089;SDS011;23904;52.322;10.232;2022-11-04T02:59:54;7.63;;;5.00;;
38089;SDS011;23904;52.322;10.232;2022-11-04T03:02:27;10.50;;;4.75;;
38089;SDS011;23904;52.322;10.232;2022-11-04T03:05:00;9.63;;;5.60;;
38089;SDS011;23904;52.322;10.232;2022-11-04T03:07:33;8.25;;;5.05;;
38089;SDS011;23904;52.322;10.232;2022-11-04T03:10:04;9.55;;;5.00;;
38089;SDS011;23904;52.322;10.232;2022-11-04T03:12:46;10.02;;;5.05;;
38089;SDS011;23904;52.322;10.232;2022-11-04T03:15:23;10.27;;;5.63;;
38089;SDS011;23904;52.322;10.232;2022-11-04T03:17:55;9.98;;;4.85;;
38089;SDS011;23904;52.322;10.232;2022-11-04T03:20:34;9.05;;;5.50;;
38089;SDS011;23904;52.322;10.232;2022-11-04T03:23:02;7.57;;;4.90;;
38089;SDS011;23904;52.322;10.232;2022-11-04T03:25:31;10.02;;;5.13;;
38089;SDS011;23904;52.322;10.232;2022-11-04T03:30:44;10.43;;;4.47;;
38089;SDS011;23904;52.322;10.232;2022-11-04T03:35:52;9.05;;;5.38;;
38089;SDS011;23904;52.322;10.232;2022-11-04T03:38:19;6.55;;;4.35;;
38089;SDS011;23904;52.322;10.232;2022-11-04T03:40:46;10.48;;;4.40;;
38089;SDS011;23904;52.322;10.232;2022-11-04T03:43:17;14.15;;;4.88;;
38089;SDS011;23904;52.322;10.232;2022-11-04T03:45:48;7.55;;;3.65;;
38089;SDS011;23904;52.322;10.232;2022-11-04T03:48:15;6.32;;;3.55;;
38089;SDS011;23904;52.322;10.232;2022-11-04T03:50:41;5.57;;;3.70;;
38089;SDS011;23904;52.322;10.232;2022-11-04T03:53:11;7.28;;;3.70;;
38089;SDS011;23904;52.322;10.232;2022-11-04T03:59:15;5.20;;;2.55;;
38089;SDS011;23904;52.322;10.232;2022-11-04T04:07:22;6.32;;;2.25;;
38089;SDS011;23904;52.322;10.232;2022-11-04T04:10:07;5.05;;;1.92;;
38089;SDS011;23904;52.322;10.232;2022-11-04T04:13:03;11.45;;;2.40;;
38089;SDS011;23904;52.322;10.232;2022-11-04T04:15:55;4.57;;;2.40;;
38089;SDS011;23904;52.322;10.232;2022-11-04T04:18:39;3.10;;;1.90;;
38089;SDS011;23904;52.322;10.232;2022-11-04T04:21:32;5.03;;;1.83;;
38089;SDS011;23904;52.322;10.232;2022-11-04T04:24:05;4.18;;;1.75;;
38089;SDS011;23904;52.322;10.232;2022-11-04T04:26:53;2.63;;;1.50;;
38089;SDS011;23904;52.322;10.232;2022-11-04T04:29:39;3.35;;;2.15;;
38089;SDS011;23904;52.322;10.232;2022-11-04T04:32:07;3.35;;;2.00;;
38089;SDS011;23904;52.322;10.232;2022-11-04T04:34:33;3.95;;;2.47;;
38089;SDS011;23904;52.322;10.232;2022-11-04T04:37:00;4.90;;;2.50;;
38089;SDS011;23904;52.322;10.232;2022-11-04T04:39:41;5.35;;;2.28;;
38089;SDS011;23904;52.322;10.232;2022-11-04T04:42:39;4.25;;;3.05;;
38089;SDS011;23904;52.322;10.232;2022-11-04T04:45:36;3.85;;;2.72;;
38089;SDS011;23904;52.322;10.232;2022-11-04T04:48:05;5.38;;;3.22;;
38089;SDS011;23904;52.322;10.232;2022-11-04T04:50:37;4.10;;;3.33;;
38089;SDS011;23904;52.322;10.232;2022-11-04T04:53:07;3.92;;;3.00;;
38089;SDS011;23904;52.322;10.232;2022-11-04T04:55:33;5.40;;;3.30;;
38089;SDS011;23904;52.322;10.232;2022-11-04T04:57:59;5.90;;;3.55;;
38089;SDS011;23904;52.322;10.232;2022-11-04T05:00:24;6.88;;;3.67;;
38089;SDS011;23904;52.322;10.232;2022-11-04T05:02:50;3.80;;;3.05;;
38089;SDS011;23904;52.322;10.232;2022-11-04T05:05:16;5.65;;;3.55;;
38089;SDS011;23904;52.322;10.232;2022-11-04T05:07:43;5.05;;;3.60;;
38089;SDS011;23904;52.322;10.232;2022-11-04T05:10:09;4.03;;;3.45;;
38089;SDS011;23904;52.322;10.232;2022-11-04T05:12:37;5.38;;;3.85;;
38089;SDS011;23904;52.322;10.232;2022-11-04T05:15:23;5.78;;;3.35;;
38089;SDS011;23904;52.322;10.232;2022-11-04T05:17:53;5.78;;;3.60;;
38089;SDS011;23904;52.322;10.232;2022-11-04T05:20:21;5.57;;;3.55;;
38089;SDS011;23904;52.322;10.232;2022-11-04T05:22:47;4.85;;;3.83;;
38089;SDS011;23904;52.322;10.232;2022-11-04T05:25:12;6.93;;;4.20;;
38089;SDS011;23904;52.322;10.232;2022-11-04T05:27:38;6.93;;;4.30;;
38089;SDS011;23904;52.322;10.232;2022-11-04T05:30:04;5.13;;;3.90;;
38089;SDS011;23904;52.322;10.232;2022-11-04T05:32:31;5.00;;;4.00;;
38089;SDS011;23904;52.322;10.232;2022-11-04T05:34:57;5.85;;;4.32;;
38089;SDS011;23904;52.322;10.232;2022-11-04T05:37:23;7.15;;;4.32;;
38089;SDS011;23904;52.322;10.232;2022-11-04T05:39:49;6.05;;;4.30;;
38089;SDS011;23904;52.322;10.232;2022-11-04T05:42:15;6.43;;;3.90;;
38089;SDS011;23904;52.322;10.232;2022-11-04T05:44:41;6.45;;;4.38;;
38089;SDS011;23904;52.322;10.232;2022-11-04T05:47:07;6.57;;;4.68;;
38089;SDS011;23904;52.322;10.232;2022-11-04T05:49:33;5.75;;;4.50;;
38089;SDS011;23904;52.322;10.232;2022-11-04T05:51:58;9.35;;;5.07;;
38089;SDS011;23904;52.322;10.232;2022-11-04T05:54:24;8.07;;;4.57;;
38089;SDS011;23904;52.322;10.232;2022-11-04T05:56:50;8.05;;;4.80;;
38089;SDS011;23904;52.322;10.232;2022-11-04T05:59:16;6.05;;;4.85;;
38089;SDS011;23904;52.322;10.232;2022-11-04T06:01:42;7.93;;;4.97;;
38089;SDS011;23904;52.322;10.232;2022-11-04T06:04:12;6.95;;;4.78;;
38089;SDS011;23904;52.322;10.232;2022-11-04T06:06:40;4.78;;;4.07;;
38089;SDS011;23904;52.322;10.232;2022-11-04T06:09:07;6.07;;;4.50;;
38089;SDS011;23904;52.322;10.232;2022-11-04T06:11:32;6.22;;;5.07;;
38089;SDS011;23904;52.322;10.232;2022-11-04T06:13:59;6.22;;;5.25;;
38089;SDS011;23904;52.322;10.232;2022-11-04T06:16:25;6.80;;;5.57;;
38089;SDS011;23904;52.322;10.232;2022-11-04T06:18:51;7.05;;;5.50;;
38089;SDS011;23904;52.322;10.232;2022-11-04T06:23:49;8.13;;;5.40;;
38089;SDS011;23904;52.322;10.232;2022-11-04T06:26:15;7.47;;;5.68;;
38089;SDS011;23904;52.322;10.232;2022-11-04T06:28:41;8.93;;;6.45;;
38089;SDS011;23904;52.322;10.232;2022-11-04T06:31:08;9.13;;;6.20;;
38089;SDS011;23904;52.322;10.232;2022-11-04T06:33:35;8.10;;;5.95;;
38089;SDS011;23904;52.322;10.232;2022-11-04T06:36:02;7.60;;;6.55;;
38089;SDS011;23904;52.322;10.232;2022-11-04T06:38:32;7.68;;;6.25;;
38089;SDS011;23904;52.322;10.232;2022-11-04T06:40:59;7.85;;;5.00;;
38089;SDS011;23904;52.322;10.232;2022-11-04T06:43:25;6.90;;;4.53;;
38089;SDS011;23904;52.322;10.232;2022-11-04T06:45:54;6.95;;;4.60;;
38089;SDS011;23904;52.322;10.232;2022-11-04T06:48:24;8.88;;;4.00;;
38089;SDS011;23904;52.322;10.232;2022-11-04T06:50:51;5.95;;;4.30;;
38089;SDS011;23904;52.322;10.232;2022-11-04T06:53:17;5.22;;;4.10;;
38089;SDS011;23904;52.322;10.232;2022-11-04T06:55:43;4.80;;;4.03;;
38089;SDS011;23904;52.322;10.232;2022-11-04T06:58:09;5.25;;;3.67;;
38089;SDS011;23904;52.322;10.232;2022-11-04T07:00:35;5.30;;;4.32;;
38089;SDS011;23904;52.322;10.232;2022-11-04T07:03:01;7.05;;;4.10;;
38089;SDS011;23904;52.322;10.232;2022-11-04T07:05:27;6.25;;;3.83;;
38089;SDS011;23904;52.322;10.232;2022-11-04T07:07:53;8.13;;;4.50;;
38089;SDS011;23904;52.322;10.232;2022-11-04T07:10:19;7.28;;;4.53;;
38089;SDS011;23904;52.322;10.232;2022-11-04T07:12:44;8.45;;;3.92;;
38089;SDS011;23904;52.322;10.232;2022-11-04T07:15:10;5.68;;;4.18;;
38089;SDS011;23904;52.322;10.232;2022-11-04T07:17:36;10.00;;;4.07;;
38089;SDS011;23904;52.322;10.232;2022-11-04T07:20:02;8.85;;;4.43;;
38089;SDS011;23904;52.322;10.232;2022-11-04T07:22:29;8.13;;;4.63;;
38089;SDS011;23904;52.322;10.232;2022-11-04T07:24:55;6.75;;;4.38;;
38089;SDS011;23904;52.322;10.232;2022-11-04T07:27:21;6.32;;;4.82;;
38089;SDS011;23904;52.322;10.232;2022-11-04T07:29:46;5.57;;;4.10;;
38089;SDS011;23904;52.322;10.232;2022-11-04T07:32:12;8.18;;;3.40;;
38089;SDS011;23904;52.322;10.232;2022-11-04T07:34:37;5.70;;;4.00;;
38089;SDS011;23904;52.322;10.232;2022-11-04T07:37:03;5.25;;;3.47;;
38089;SDS011;23904;52.322;10.232;2022-11-04T07:39:29;6.93;;;4.03;;
38089;SDS011;23904;52.322;10.232;2022-11-04T07:41:54;7.47;;;4.82;;
38089;SDS011;23904;52.322;10.232;2022-11-04T07:44:20;5.57;;;4.10;;
38089;SDS011;23904;52.322;10.232;2022-11-04T07:46:47;7.13;;;3.85;;
38089;SDS011;23904;52.322;10.232;2022-11-04T07:49:13;9.15;;;5.00;;
38089;SDS011;23904;52.322;10.232;2022-11-04T07:51:39;6.65;;;4.97;;
38089;SDS011;23904;52.322;10.232;2022-11-04T07:54:05;6.65;;;4.50;;
38089;SDS011;23904;52.322;10.232;2022-11-04T07:56:32;9.50;;;4.32;;
38089;SDS011;23904;52.322;10.232;2022-11-04T07:58:58;8.50;;;4.82;;
38089;SDS011;23904;52.322;10.232;2022-11-04T08:01:23;8.18;;;4.97;;
38089;SDS011;23904;52.322;10.232;2022-11-04T08:03:49;6.22;;;3.83;;
38089;SDS011;23904;52.322;10.232;2022-11-04T08:06:16;8.98;;;4.95;;
38089;SDS011;23904;52.322;10.232;2022-11-04T08:08:44;6.78;;;4.45;;
38089;SDS011;23904;52.322;10.232;2022-11-04T08:11:13;5.38;;;4.03;;
38089;SDS011;23904;52.322;10.232;2022-11-04T08:13:42;11.35;;;4.93;;
38089;SDS011;23904;52.322;10.232;2022-11-04T08:16:12;8.75;;;4.60;;
38089;SDS011;23904;52.322;10.232;2022-11-04T08:18:41;10.00;;;4.70;;
38089;SDS011;23904;52.322;10.232;2022-11-04T08:21:07;10.85;;;4.85;;
38089;SDS011;23904;52.322;10.232;2022-11-04T08:23:34;8.50;;;4.13;;
38089;SDS011;23904;52.322;10.232;2022-11-04T08:26:06;6.50;;;4.28;;
38089;SDS011;23904;52.322;10.232;2022-11-04T08:28:35;14.18;;;5.82;;
38089;SDS011;23904;52.322;10.232;2022-11-04T08:31:06;7.38;;;3.95;;
38089;SDS011;23904;52.322;10.232;2022-11-04T08:33:44;7.53;;;4.35;;
38089;SDS011;23904;52.322;10.232;2022-11-04T08:36:18;12.52;;;4.95;;
38089;SDS011;23904;52.322;10.232;2022-11-04T08:38:50;8.00;;;4.28;;
38089;SDS011;23904;52.322;10.232;2022-11-04T08:41:17;9.40;;;4.65;;
38089;SDS011;23904;52.322;10.232;2022-11-04T08:43:50;6.90;;;3.75;;
38089;SDS011;23904;52.322;10.232;2022-11-04T08:46:16;9.57;;;4.07;;
38089;SDS011;23904;52.322;10.232;2022-11-04T08:48:43;12.75;;;4.55;;
38089;SDS011;23904;52.322;10.232;2022-11-04T08:51:16;8.70;;;4.22;;
38089;SDS011;23904;52.322;10.232;2022-11-04T08:53:48;9.27;;;4.22;;
38089;SDS011;23904;52.322;10.232;2022-11-04T08:58:51;7.45;;;4.57;;
38089;SDS011;23904;52.322;10.232;2022-11-04T09:01:18;12.27;;;4.25;;
38089;SDS011;23904;52.322;10.232;2022-11-04T09:03:45;9.23;;;4.65;;
38089;SDS011;23904;52.322;10.232;2022-11-04T09:06:13;8.32;;;3.85;;
38089;SDS011;23904;52.322;10.232;2022-11-04T09:08:44;10.30;;;3.45;;
38089;SDS011;23904;52.322;10.232;2022-11-04T09:11:11;7.10;;;4.07;;
38089;SDS011;23904;52.322;10.232;2022-11-04T09:13:39;10.52;;;4.32;;
38089;SDS011;23904;52.322;10.232;2022-11-04T09:16:06;8.20;;;3.22;;
38089;SDS011;23904;52.322;10.232;2022-11-04T09:18:34;8.02;;;3.30;;
38089;SDS011;23904;52.322;10.232;2022-11-04T09:21:03;8.25;;;3.58;;
38089;SDS011;23904;52.322;10.232;2022-11-04T09:23:31;9.05;;;3.83;;
38089;SDS011;23904;52.322;10.232;2022-11-04T09:25:57;8.48;;;3.05;;
38089;SDS011;23904;52.322;10.232;2022-11-04T09:28:34;10.48;;;3.42;;
38089;SDS011;23904;52.322;10.232;2022-11-04T09:31:04;10.80;;;3.50;;
38089;SDS011;23904;52.322;10.232;2022-11-04T09:33:32;6.20;;;2.67;;
38089;SDS011;23904;52.322;10.232;2022-11-04T09:35:58;9.30;;;2.88;;
38089;SDS011;23904;52.322;10.232;2022-11-04T09:38:24;9.15;;;3.00;;
38089;SDS011;23904;52.322;10.232;2022-11-04T09:40:50;6.88;;;3.08;;
38089;SDS011;23904;52.322;10.232;2022-11-04T09:45:54;10.13;;;3.20;;
38089;SDS011;23904;52.322;10.232;2022-11-04T09:48:32;11.13;;;4.05;;
38089;SDS011;23904;52.322;10.232;2022-11-04T09:51:05;11.70;;;3.78;;
38089;SDS011;23904;52.322;10.232;2022-11-04T09:56:20;9.93;;;4.03;;
38089;SDS011;23904;52.322;10.232;2022-11-04T09:58:49;11.50;;;3.75;;
38089;SDS011;23904;52.322;10.232;2022-11-04T10:07:17;13.25;;;4.40;;
38089;SDS011;23904;52.322;10.232;2022-11-04T10:10:28;10.18;;;4.32;;
38089;SDS011;23904;52.322;10.232;2022-11-04T10:18:42;7.60;;;3.50;;
38089;SDS011;23904;52.322;10.232;2022-11-04T10:21:45;11.57;;;4.00;;
38089;SDS011;23904;52.322;10.232;2022-11-04T10:26:59;9.30;;;4.07;;
38089;SDS011;23904;52.322;10.232;2022-11-04T10:29:31;9.63;;;3.75;;
38089;SDS011;23904;52.322;10.232;2022-11-04T10:34:56;11.77;;;4.32;;
38089;SDS011;23904;52.322;10.232;2022-11-04T10:37:41;8.55;;;4.03;;
38089;SDS011;23904;52.322;10.232;2022-11-04T10:40:19;10.32;;;3.88;;
38089;SDS011;23904;52.322;10.232;2022-11-04T10:42:57;11.65;;;4.38;;
38089;SDS011;23904;52.322;10.232;2022-11-04T10:45:35;9.00;;;4.20;;
38089;SDS011;23904;52.322;10.232;2022-11-04T10:48:22;10.48;;;4.13;;
38089;SDS011;23904;52.322;10.232;2022-11-04T10:51:07;9.30;;;4.13;;
38089;SDS011;23904;52.322;10.232;2022-11-04T10:53:33;10.80;;;4.53;;
38089;SDS011;23904;52.322;10.232;2022-11-04T10:56:09;12.10;;;4.10;;
38089;SDS011;23904;52.322;10.232;2022-11-04T10:58:56;12.40;;;5.43;;
38089;SDS011;23904;52.322;10.232;2022-11-04T11:01:53;5.88;;;3.78;;
38089;SDS011;23904;52.322;10.232;2022-11-04T11:04:32;8.18;;;4.13;;
38089;SDS011;23904;52.322;10.232;2022-11-04T11:07:00;7.45;;;3.97;;
38089;SDS011;23904;52.322;10.232;2022-11-04T11:12:20;8.57;;;3.53;;
38089;SDS011;23904;52.322;10.232;2022-11-04T11:14:54;6.38;;;3.65;;
38089;SDS011;23904;52.322;10.232;2022-11-04T11:19:59;11.10;;;3.78;;
38089;SDS011;23904;52.322;10.232;2022-11-04T11:22:47;6.78;;;4.05;;
38089;SDS011;23904;52.322;10.232;2022-11-04T11:33:17;6.95;;;3.25;;
38089;SDS011;23904;52.322;10.232;2022-11-04T11:36:02;14.65;;;4.25;;
38089;SDS011;23904;52.322;10.232;2022-11-04T11:38:36;11.35;;;3.78;;
38089;SDS011;23904;52.322;10.232;2022-11-04T11:41:15;8.95;;;3.40;;
38089;SDS011;23904;52.322;10.232;2022-11-04T11:43:48;11.00;;;4.38;;
38089;SDS011;23904;52.322;10.232;2022-11-04T11:46:29;7.28;;;3.58;;
38089;SDS011;23904;52.322;10.232;2022-11-04T11:48:59;10.63;;;3.72;;
38089;SDS011;23904;52.322;10.232;2022-11-04T11:51:34;8.63;;;3.20;;
38089;SDS011;23904;52.322;10.232;2022-11-04T11:54:15;9.15;;;3.63;;
38089;SDS011;23904;52.322;10.232;2022-11-04T11:56:54;8.35;;;3.17;;
38089;SDS011;23904;52.322;10.232;2022-11-04T12:01:55;5.43;;;2.80;;
38089;SDS011;23904;52.322;10.232;2022-11-04T12:04:44;6.40;;;2.92;;
38089;SDS011;23904;52.322;10.232;2022-11-04T12:10:02;8.20;;;3.38;;
38089;SDS011;23904;52.322;10.232;2022-11-04T12:13:11;10.27;;;3.28;;
38089;SDS011;23904;52.322;10.232;2022-11-04T12:47:02;11.60;;;3.53;;
38089;SDS011;23904;52.322;10.232;2022-11-04T12:50:13;7.07;;;3.20;;
38089;SDS011;23904;52.322;10.232;2022-11-04T12:55:56;5.45;;;3.22;;
38089;SDS011;23904;52.322;10.232;2022-11-04T13:01:53;10.25;;;3.13;;
38089;SDS011;23904;52.322;10.232;2022-11-04T13:04:31;5.07;;;3.03;;
38089;SDS011;23904;52.322;10.232;2022-11-04T13:07:07;6.65;;;2.83;;
38089;SDS011;23904;52.322;10.232;2022-11-04T13:09:48;5.35;;;2.72;;
38089;SDS011;23904;52.322;10.232;2022-11-04T13:12:23;8.85;;;3.08;;
38089;SDS011;23904;52.322;10.232;2022-11-04T13:17:31;7.40;;;2.22;;
38089;SDS011;23904;52.322;10.232;2022-11-04T13:22:37;5.40;;;3.05;;
38089;SDS011;23904;52.322;10.232;2022-11-04T13:27:40;6.10;;;2.50;;
38089;SDS011;23904;52.322;10.232;2022-11-04T13:35:52;6.53;;;2.80;;
38089;SDS011;23904;52.322;10.232;2022-11-04T13:44:34;29.67;;;3.35;;
38089;SDS011;23904;52.322;10.232;2022-11-04T13:47:12;3.80;;;2.10;;
38089;SDS011;23904;52.322;10.232;2022-11-04T13:49:47;6.45;;;3.00;;
38089;SDS011;23904;52.322;10.232;2022-11-04T13:52:17;6.15;;;2.70;;
38089;SDS011;23904;52.322;10.232;2022-11-04T13:54:45;7.90;;;2.90;;
38089;SDS011;23904;52.322;10.232;2022-11-04T13:57:22;6.93;;;2.90;;
38089;SDS011;23904;52.322;10.232;2022-11-04T14:08:09;7.15;;;3.42;;
38089;SDS011;23904;52.322;10.232;2022-11-04T14:16:09;9.00;;;3.58;;
38089;SDS011;23904;52.322;10.232;2022-11-04T14:18:48;11.15;;;4.10;;
38089;SDS011;23904;52.322;10.232;2022-11-04T14:21:18;8.95;;;5.22;;
38089;SDS011;23904;52.322;10.232;2022-11-04T14:26:17;11.55;;;3.60;;
38089;SDS011;23904;52.322;10.232;2022-11-04T14:28:48;5.85;;;3.17;;
38089;SDS011;23904;52.322;10.232;2022-11-04T14:31:38;7.72;;;3.10;;
38089;SDS011;23904;52.322;10.232;2022-11-04T14:34:20;7.65;;;3.53;;
38089;SDS011;23904;52.322;10.232;2022-11-04T14:36:57;5.95;;;2.88;;
38089;SDS011;23904;52.322;10.232;2022-11-04T14:39:37;3.85;;;2.35;;
38089;SDS011;23904;52.322;10.232;2022-11-04T14:42:05;5.57;;;2.92;;
38089;SDS011;23904;52.322;10.232;2022-11-04T14:44:37;8.32;;;3.10;;
38089;SDS011;23904;52.322;10.232;2022-11-04T14:52:42;8.00;;;3.42;;
38089;SDS011;23904;52.322;10.232;2022-11-04T14:55:35;6.22;;;3.83;;
38089;SDS011;23904;52.322;10.232;2022-11-04T14:58:19;5.50;;;3.22;;
38089;SDS011;23904;52.322;10.232;2022-11-04T15:00:52;5.85;;;3.83;;
38089;SDS011;23904;52.322;10.232;2022-11-04T15:03:24;4.88;;;3.05;;
38089;SDS011;23904;52.322;10.232;2022-11-04T15:06:04;11.13;;;3.80;;
38089;SDS011;23904;52.322;10.232;2022-11-04T15:13:42;14.77;;;4.57;;
38089;SDS011;23904;52.322;10.232;2022-11-04T15:16:15;10.70;;;4.00;;
38089;SDS011;23904;52.322;10.232;2022-11-04T15:18:48;14.15;;;4.47;;
38089;SDS011;23904;52.322;10.232;2022-11-04T15:21:16;13.93;;;5.88;;
38089;SDS011;23904;52.322;10.232;2022-11-04T15:23:42;10.48;;;3.80;;
38089;SDS011;23904;52.322;10.232;2022-11-04T15:26:22;10.48;;;5.20;;
38089;SDS011;23904;52.322;10.232;2022-11-04T15:28:51;7.30;;;4.30;;
38089;SDS011;23904;52.322;10.232;2022-11-04T15:31:19;11.02;;;4.72;;
38089;SDS011;23904;52.322;10.232;2022-11-04T15:33:49;8.93;;;5.03;;
38089;SDS011;23904;52.322;10.232;2022-11-04T15:36:19;9.55;;;4.82;;
38089;SDS011;23904;52.322;10.232;2022-11-04T15:38:58;10.23;;;4.78;;
38089;SDS011;23904;52.322;10.232;2022-11-04T15:41:31;10.55;;;5.47;;
38089;SDS011;23904;52.322;10.232;2022-11-04T15:44:20;13.93;;;7.43;;
38089;SDS011;23904;52.322;10.232;2022-11-04T15:46:53;10.15;;;4.50;;
38089;SDS011;23904;52.322;10.232;2022-11-04T15:49:26;11.23;;;4.32;;
38089;SDS011;23904;52.322;10.232;2022-11-04T15:52:05;8.82;;;3.72;;
38089;SDS011;23904;52.322;10.232;2022-11-04T15:54:35;10.82;;;3.92;;
38089;SDS011;23904;52.322;10.232;2022-11-04T15:57:13;7.03;;;4.07;;
38089;SDS011;23904;52.322;10.232;2022-11-04T15:59:49;21.13;;;10.32;;
38089;SDS011;23904;52.322;10.232;2022-11-04T16:03:13;16.23;;;7.72;;
38089;SDS011;23904;52.322;10.232;2022-11-04T16:07:50;11.65;;;4.00;;
38089;SDS011;23904;52.322;10.232;2022-11-04T16:10:22;8.88;;;4.32;;
38089;SDS011;23904;52.322;10.232;2022-11-04T16:12:56;6.45;;;4.25;;
38089;SDS011;23904;52.322;10.232;2022-11-04T16:24:00;10.70;;;5.10;;
38089;SDS011;23904;52.322;10.232;2022-11-04T16:26:42;11.13;;;5.57;;
38089;SDS011;23904;52.322;10.232;2022-11-04T16:29:12;7.30;;;5.93;;
38089;SDS011;23904;52.322;10.232;2022-11-04T16:32:04;7.68;;;5.68;;
38089;SDS011;23904;52.322;10.232;2022-11-04T16:34:52;15.13;;;6.55;;
38089;SDS011;23904;52.322;10.232;2022-11-04T16:37:22;11.45;;;6.75;;
38089;SDS011;23904;52.322;10.232;2022-11-04T16:39:49;9.73;;;6.82;;
38089;SDS011;23904;52.322;10.232;2022-11-04T16:42:15;13.45;;;6.45;;
38089;SDS011;23904;52.322;10.232;2022-11-04T16:44:47;11.40;;;6.65;;
38089;SDS011;23904;52.322;10.232;2022-11-04T16:47:16;15.10;;;6.88;;
38089;SDS011;23904;52.322;10.232;2022-11-04T16:49:43;15.07;;;7.53;;
38089;SDS011;23904;52.322;10.232;2022-11-04T16:52:13;10.18;;;6.60;;
38089;SDS011;23904;52.322;10.232;2022-11-04T16:54:45;14.55;;;6.95;;
38089;SDS011;23904;52.322;10.232;2022-11-04T16:57:12;13.18;;;7.57;;
38089;SDS011;23904;52.322;10.232;2022-11-04T16:59:38;14.75;;;7.35;;
38089;SDS011;23904;52.322;10.232;2022-11-04T17:02:22;12.35;;;7.22;;
38089;SDS011;23904;52.322;10.232;2022-11-04T17:05:01;14.43;;;6.25;;
38089;SDS011;23904;52.322;10.232;2022-11-04T17:07:32;10.02;;;6.07;;
38089;SDS011;23904;52.322;10.232;2022-11-04T17:10:02;9.95;;;6.78;;
38089;SDS011;23904;52.322;10.232;2022-11-04T17:12:30;16.65;;;6.78;;
38089;SDS011;23904;52.322;10.232;2022-11-04T17:14:56;15.63;;;6.53;;
38089;SDS011;23904;52.322;10.232;2022-11-04T17:17:21;14.57;;;7.78;;
38089;SDS011;23904;52.322;10.232;2022-11-04T17:19:47;10.60;;;6.55;;
38089;SDS011;23904;52.322;10.232;2022-11-04T17:22:13;14.60;;;6.30;;
38089;SDS011;23904;52.322;10.232;2022-11-04T17:24:38;8.23;;;5.68;;
38089;SDS011;23904;52.322;10.232;2022-11-04T17:27:04;14.13;;;6.60;;
38089;SDS011;23904;52.322;10.232;2022-11-04T17:29:30;13.70;;;6.32;;
38089;SDS011;23904;52.322;10.232;2022-11-04T17:31:56;11.90;;;8.10;;
38089;SDS011;23904;52.322;10.232;2022-11-04T17:34:21;11.38;;;7.05;;
38089;SDS011;23904;52.322;10.232;2022-11-04T17:36:50;15.85;;;7.85;;
38089;SDS011;23904;52.322;10.232;2022-11-04T17:39:17;14.18;;;6.10;;
38089;SDS011;23904;52.322;10.232;2022-11-04T17:41:43;10.98;;;7.93;;
38089;SDS011;23904;52.322;10.232;2022-11-04T17:44:27;11.38;;;7.38;;
38089;SDS011;23904;52.322;10.232;2022-11-04T17:46:52;10.20;;;6.93;;
38089;SDS011;23904;52.322;10.232;2022-11-04T17:49:19;10.38;;;6.47;;
38089;SDS011;23904;52.322;10.232;2022-11-04T17:51:49;12.27;;;6.93;;